KMTN

Martin State Airport

Baltimore, Maryland, USA
METAR KMTN 230045Z 14007KT 10SM SKC 10/07 A3005
Observed Flight Rules
Jan-23 @ 00:45 UTC (an hour ago) Visual Flight Rules
Wind Visibility Clouds
140° at 7 knots 10 miles
  • Clear skies
Temperatures Readings
Current 10°C / 50°F
Dewpoint 7°C / 45°F
Humidity 82%
Altimeter 30.05" Hg
Pressure 1018 hPa
Elevation 7
METAR KMTN 230045Z 14007KT 10SM SKC 10/07 A3005
Observed Flight Rules
Jan-23 @ 00:45 UTC
(an hour ago)
VFR
Wind Visibility
140° at 7 knots 10 miles
Clouds
  • Clear skies
Temperature Dewpoint
10°C / 50°F 7°C / 45°F
Humidity Altimeter Pressure
82% 30.05" Hg 1018 hPa